Hampton, New Jersey
Current Conditions -  °F | °C
As of 6:53 PM on Friday 19 Dec 2014 (Local Time) from KSMQ Reporting Station
Overcast Overcast  
Wind Chill: 24°   Ceiling: 3100
Heat Index: 33°   Visibility: 10mi
Dew Point: 20°   Wind: 12mph
Humidity: 59%   Direction: 330°NNW
Pressure: 30.15"   Gusts: 18mph
Location:  40.71°N, 74.96°W
Report Text: KSMQ 192353Z AUTO 33010G16KT 10SM OVC031 01/M07 A3015 RMK AO2 SLP214 T00061067 10039 20006 51027
Loading
Personal Weather Stations






























Interactive Weather Map New forecast layout! Learn more

10-Day Weather Forecast

Advertisements
Track Severe Weather on mobile